Time,TemperatureF,DewpointF,PressureIn,WindDirection,WindDirectionDegrees,WindSpeedMPH,WindSpeedGustMPH,Humidity,HourlyPrecipIn,Conditions,Clouds,dailyrainin,SoftwareType,DateUTC
2013-03-11 00:03:00,22.0,12.0,25.73,WNW,298,2.0,2.0,66,0.00,,,0.00,weatherlink.com 1.10,2013-03-11 06:03:00,
2013-03-11 00:18:00,20.4,13.0,25.73,West,270,4.0,9.0,72,0.00,,,0.00,weatherlink.com 1.10,2013-03-11 06:18:00,
2013-03-11 00:33:00,21.3,12.0,25.73,West,281,3.0,7.0,68,0.00,,,0.00,weatherlink.com 1.10,2013-03-11 06:33:00,
2013-03-11 00:48:00,20.6,13.0,25.72,WNW,297,4.0,5.0,71,0.00,,,0.00,weatherlink.com 1.10,2013-03-11 06:48:00,
2013-03-11 01:03:00,19.9,13.0,25.72,WNW,287,4.0,7.0,73,0.00,,,0.00,weatherlink.com 1.10,2013-03-11 07:03:00,
2013-03-11 01:18:00,19.8,13.0,25.71,WNW,291,4.0,6.0,74,0.00,,,0.00,weatherlink.com 1.10,2013-03-11 07:18:00,
2013-03-11 01:34:00,19.6,13.0,25.71,WNW,300,4.0,6.0,75,0.00,,,0.00,weatherlink.com 1.10,2013-03-11 07:34:00,
2013-03-11 01:49:00,20.7,14.0,25.70,WNW,293,5.0,6.0,74,0.00,,,0.00,weatherlink.com 1.10,2013-03-11 07:49:00,
2013-03-11 02:04:00,21.5,14.0,25.70,West,278,4.0,7.0,73,0.00,,,0.00,weatherlink.com 1.10,2013-03-11 08:04:00,
2013-03-11 02:19:00,21.7,14.0,25.69,WNW,284,2.0,5.0,73,0.00,,,0.00,weatherlink.com 1.10,2013-03-11 08:19:00,
2013-03-11 02:34:00,21.7,14.0,25.69,WNW,284,2.0,6.0,72,0.00,,,0.00,weatherlink.com 1.10,2013-03-11 08:34:00,
2013-03-11 02:49:00,22.3,15.0,25.68,WNW,302,4.0,6.0,72,0.00,,,0.00,weatherlink.com 1.10,2013-03-11 08:49:00,
2013-03-11 03:04:00,25.6,14.0,25.68,WNW,302,10.0,11.0,63,0.00,,,0.00,weatherlink.com 1.10,2013-03-11 09:04:00,
2013-03-11 03:19:00,27.7,15.0,25.67,NW,308,8.0,12.0,58,0.00,,,0.00,weatherlink.com 1.10,2013-03-11 09:19:00,
2013-03-11 03:34:00,27.8,15.0,25.68,NW,304,7.0,12.0,58,0.00,,,0.00,weatherlink.com 1.10,2013-03-11 09:34:00,
2013-03-11 03:49:00,28.2,16.0,25.67,WNW,297,3.0,7.0,60,0.00,,,0.00,weatherlink.com 1.10,2013-03-11 09:49:00,
2013-03-11 04:04:00,27.1,17.0,25.67,NW,321,5.0,6.0,65,0.00,,,0.00,weatherlink.com 1.10,2013-03-11 10:04:00,
2013-03-11 04:19:00,27.4,17.0,25.67,NNW,333,6.0,9.0,66,0.00,,,0.00,weatherlink.com 1.10,2013-03-11 10:19:00,
2013-03-11 04:34:00,30.9,18.0,25.67,NW,312,1.0,9.0,59,0.00,,,0.00,weatherlink.com 1.10,2013-03-11 10:34:00,
2013-03-11 04:49:00,32.7,18.0,25.66,NNE,13,1.0,4.0,56,0.00,,,0.00,weatherlink.com 1.10,2013-03-11 10:49:00,
2013-03-11 05:19:00,32.4,19.0,25.66,NW,305,3.0,7.0,57,0.00,,,0.00,weatherlink.com 1.10,2013-03-11 11:19:00,
2013-03-11 05:34:00,32.4,19.0,25.66,NW,325,3.0,4.0,58,0.00,,,0.00,weatherlink.com 1.10,2013-03-11 11:34:00,
2013-03-11 05:49:00,31.6,19.0,25.67,NW,304,3.0,5.0,60,0.00,,,0.00,weatherlink.com 1.10,2013-03-11 11:49:00,
2013-03-11 06:04:00,31.7,19.0,25.66,NW,305,4.0,10.0,59,0.00,,,0.00,weatherlink.com 1.10,2013-03-11 12:04:00,
2013-03-11 06:19:00,31.7,18.0,25.66,NW,307,8.0,12.0,58,0.00,,,0.00,weatherlink.com 1.10,2013-03-11 12:19:00,
2013-03-11 06:34:00,32.1,19.0,25.67,NW,304,11.0,13.0,58,0.00,,,0.00,weatherlink.com 1.10,2013-03-11 12:34:00,
2013-03-11 06:49:00,32.1,19.0,25.67,WNW,287,7.0,14.0,58,0.00,,,0.00,weatherlink.com 1.10,2013-03-11 12:49:00,
2013-03-11 07:04:00,32.1,18.0,25.66,NW,307,9.0,14.0,57,0.00,,,0.00,weatherlink.com 1.10,2013-03-11 13:04:00,
2013-03-11 07:19:00,31.6,18.0,25.66,WNW,290,8.0,12.0,58,0.00,,,0.00,weatherlink.com 1.10,2013-03-11 13:19:00,
2013-03-11 07:34:00,32.1,19.0,25.67,West,280,5.0,11.0,59,0.00,,,0.00,weatherlink.com 1.10,2013-03-11 13:34:00,
2013-03-11 07:49:00,33.1,20.0,25.67,West,265,3.0,14.0,59,0.00,,,0.00,weatherlink.com 1.10,2013-03-11 13:49:00,
2013-03-11 08:04:00,35.2,22.0,25.66,NNW,327,9.0,14.0,58,0.00,,,0.00,weatherlink.com 1.10,2013-03-11 14:04:00,
2013-03-11 08:19:00,37.2,23.0,25.67,NW,304,10.0,16.0,56,0.00,,,0.00,weatherlink.com 1.10,2013-03-11 14:19:00,
2013-03-11 08:34:00,38.8,24.0,25.68,WNW,297,10.0,18.0,55,0.00,,,0.00,weatherlink.com 1.10,2013-03-11 14:34:00,
2013-03-11 08:49:00,38.9,24.0,25.68,NNW,338,7.0,16.0,56,0.00,,,0.00,weatherlink.com 1.10,2013-03-11 14:49:00,
2013-03-11 09:04:00,41.3,26.0,25.69,North,5,10.0,22.0,55,0.00,,,0.00,weatherlink.com 1.10,2013-03-11 15:04:00,
2013-03-11 09:20:00,42.4,26.0,25.69,NNE,15,14.0,19.0,53,0.00,,,0.00,weatherlink.com 1.10,2013-03-11 15:20:00,
2013-03-11 09:35:00,42.5,27.0,25.70,NNW,328,11.0,20.0,54,0.00,,,0.00,weatherlink.com 1.10,2013-03-11 15:35:00,
2013-03-11 09:50:00,42.2,28.0,25.70,ENE,69,14.0,23.0,58,0.00,,,0.00,weatherlink.com 1.10,2013-03-11 15:50:00,
2013-03-11 10:05:00,40.4,29.0,25.70,NNW,333,9.0,22.0,63,0.00,,,0.00,weatherlink.com 1.10,2013-03-11 16:05:00,
2013-03-11 10:20:00,40.3,28.0,25.70,North,11,10.0,19.0,61,0.00,,,0.00,weatherlink.com 1.10,2013-03-11 16:20:00,
2013-03-11 10:35:00,40.4,27.0,25.70,NNW,342,11.0,21.0,60,0.00,,,0.00,weatherlink.com 1.10,2013-03-11 16:35:00,
2013-03-11 10:50:00,40.7,28.0,25.71,NNE,12,13.0,19.0,60,0.00,,,0.00,weatherlink.com 1.10,2013-03-11 16:50:00,
2013-03-11 11:05:00,41.4,28.0,25.71,North,7,11.0,17.0,59,0.00,,,0.00,weatherlink.com 1.10,2013-03-11 17:05:00,
2013-03-11 11:20:00,41.8,28.0,25.71,NNW,333,8.0,19.0,59,0.00,,,0.00,weatherlink.com 1.10,2013-03-11 17:20:00,
2013-03-11 11:35:00,42.5,29.0,25.70,NNW,340,8.0,16.0,59,0.00,,,0.00,weatherlink.com 1.10,2013-03-11 17:35:00,
2013-03-11 11:50:00,42.9,28.0,25.70,SSE,161,10.0,20.0,57,0.00,,,0.00,weatherlink.com 1.10,2013-03-11 17:50:00,
2013-03-11 12:20:00,43.9,28.0,25.70,NW,307,6.0,17.0,55,0.00,,,0.00,weatherlink.com 1.10,2013-03-11 18:20:00,
2013-03-11 12:35:00,43.1,28.0,25.70,ENE,58,14.0,17.0,56,0.00,,,0.00,weatherlink.com 1.10,2013-03-11 18:35:00,
2013-03-11 12:50:00,43.8,28.0,25.70,NW,317,12.0,18.0,54,0.00,,,0.00,weatherlink.com 1.10,2013-03-11 18:50:00,
2013-03-11 13:05:00,45.3,21.0,25.68,NE,50,17.0,22.0,39,0.00,,,0.00,weatherlink.com 1.10,2013-03-11 19:05:00,
2013-03-11 13:20:00,45.1,21.0,25.69,NW,312,5.0,23.0,39,0.00,,,0.00,weatherlink.com 1.10,2013-03-11 19:20:00,
2013-03-11 13:35:00,45.3,20.0,25.67,NNW,334,11.0,22.0,36,0.00,,,0.00,weatherlink.com 1.10,2013-03-11 19:35:00,
2013-03-11 13:50:00,45.3,18.0,25.67,NNW,336,15.0,23.0,34,0.00,,,0.00,weatherlink.com 1.10,2013-03-11 19:50:00,
2013-03-11 14:05:00,44.9,19.0,25.67,WNW,293,12.0,21.0,36,0.00,,,0.00,weatherlink.com 1.10,2013-03-11 20:05:00,
2013-03-11 14:20:00,44.0,19.0,25.67,NW,321,16.0,26.0,37,0.00,,,0.00,weatherlink.com 1.10,2013-03-11 20:20:00,
2013-03-11 14:35:00,44.3,19.0,25.67,ESE,102,16.0,20.0,36,0.00,,,0.00,weatherlink.com 1.10,2013-03-11 20:35:00,
2013-03-11 14:50:00,44.5,16.0,25.67,WSW,254,19.0,23.0,32,0.00,,,0.00,weatherlink.com 1.10,2013-03-11 20:50:00,
2013-03-11 15:05:00,44.4,15.0,25.68,NE,52,12.0,19.0,31,0.00,,,0.00,weatherlink.com 1.10,2013-03-11 21:05:00,
2013-03-11 15:20:00,44.3,17.0,25.68,NNW,332,16.0,19.0,34,0.00,,,0.00,weatherlink.com 1.10,2013-03-11 21:20:00,
2013-03-11 15:35:00,44.2,19.0,25.68,North,356,21.0,21.0,36,0.00,,,0.00,weatherlink.com 1.10,2013-03-11 21:35:00,
2013-03-11 15:50:00,44.3,19.0,25.68,NNW,330,15.0,24.0,36,0.00,,,0.00,weatherlink.com 1.10,2013-03-11 21:50:00,
2013-03-11 16:05:00,44.6,18.0,25.68,NW,324,13.0,21.0,34,0.00,,,0.00,weatherlink.com 1.10,2013-03-11 22:05:00,
2013-03-11 16:20:00,44.2,17.0,25.68,NNW,343,10.0,22.0,34,0.00,,,0.00,weatherlink.com 1.10,2013-03-11 22:20:00,
2013-03-11 16:35:00,44.1,16.0,25.68,NNW,335,8.0,26.0,32,0.00,,,0.00,weatherlink.com 1.10,2013-03-11 22:35:00,
2013-03-11 16:50:00,43.5,16.0,25.68,NE,46,22.0,24.0,33,0.00,,,0.00,weatherlink.com 1.10,2013-03-11 22:50:00,
2013-03-11 17:05:00,43.3,18.0,25.68,NNW,334,8.0,21.0,37,0.00,,,0.00,weatherlink.com 1.10,2013-03-11 23:05:00,
2013-03-11 17:21:00,43.1,17.0,25.67,NNW,334,9.0,19.0,35,0.00,,,0.00,weatherlink.com 1.10,2013-03-11 23:21:00,
2013-03-11 17:35:00,40.2,22.0,25.70,East,84,15.0,21.0,49,0.00,,,0.00,weatherlink.com 1.10,2013-03-11 23:35:00,
2013-03-11 17:50:00,38.1,23.0,25.71,NE,53,11.0,17.0,54,0.00,,,0.00,weatherlink.com 1.10,2013-03-11 23:50:00,
2013-03-11 18:05:00,37.5,23.0,25.72,East,84,10.0,16.0,57,0.00,,,0.00,weatherlink.com 1.10,2013-03-12 00:05:00,
2013-03-11 18:20:00,36.9,24.0,25.73,ENE,74,8.0,14.0,59,0.00,,,0.00,weatherlink.com 1.10,2013-03-12 00:20:00,
2013-03-11 18:35:00,36.7,24.0,25.74,NE,50,1.0,3.0,61,0.00,,,0.00,weatherlink.com 1.10,2013-03-12 00:35:00,
2013-03-11 18:50:00,36.5,24.0,25.74,East,89,1.0,2.0,60,0.00,,,0.00,weatherlink.com 1.10,2013-03-12 00:50:00,
2013-03-11 19:05:00,36.0,24.0,25.75,SE,142,0.0,2.0,61,0.00,,,0.00,weatherlink.com 1.10,2013-03-12 01:05:00,
2013-03-11 19:20:00,35.5,24.0,25.75,WSW,257,2.0,2.0,62,0.00,,,0.00,weatherlink.com 1.10,2013-03-12 01:20:00,
2013-03-11 19:35:00,35.4,24.0,25.76,West,278,1.0,2.0,63,0.00,,,0.00,weatherlink.com 1.10,2013-03-12 01:35:00,
2013-03-11 19:50:00,34.9,24.0,25.77,WNW,291,2.0,3.0,64,0.00,,,0.00,weatherlink.com 1.10,2013-03-12 01:50:00,
2013-03-11 20:05:00,34.6,24.0,25.78,ENE,74,11.0,12.0,65,0.00,,,0.00,weatherlink.com 1.10,2013-03-12 02:05:00,
2013-03-11 20:20:00,33.0,27.0,25.79,East,86,8.0,13.0,78,0.00,,,0.00,weatherlink.com 1.10,2013-03-12 02:20:00,
2013-03-11 20:35:00,32.1,28.0,25.79,SE,129,6.0,11.0,83,0.00,,,0.00,weatherlink.com 1.10,2013-03-12 02:35:00,
2013-03-11 20:51:00,31.8,28.0,25.79,South,169,3.0,6.0,84,0.00,,,0.00,weatherlink.com 1.10,2013-03-12 02:51:00,
2013-03-11 21:06:00,31.4,27.0,25.80,SSE,155,0.0,4.0,85,0.00,,,0.00,weatherlink.com 1.10,2013-03-12 03:06:00,
2013-03-11 21:21:00,31.2,28.0,25.81,SE,140,0.0,1.0,86,0.00,,,0.00,weatherlink.com 1.10,2013-03-12 03:21:00,
2013-03-11 21:36:00,31.4,27.0,25.82,WNW,291,0.0,5.0,83,0.00,,,0.00,weatherlink.com 1.10,2013-03-12 03:36:00,
2013-03-11 21:51:00,31.5,27.0,25.83,NW,325,0.0,1.0,84,0.00,,,0.00,weatherlink.com 1.10,2013-03-12 03:51:00,
2013-03-11 22:06:00,31.2,27.0,25.83,North,356,1.0,1.0,83,0.00,,,0.00,weatherlink.com 1.10,2013-03-12 04:06:00,
2013-03-11 22:21:00,31.6,26.0,25.84,North,355,1.0,4.0,79,0.00,,,0.00,weatherlink.com 1.10,2013-03-12 04:21:00,
2013-03-11 22:36:00,31.5,23.0,25.85,North,8,4.0,6.0,71,0.00,,,0.00,weatherlink.com 1.10,2013-03-12 04:36:00,
2013-03-11 23:51:00,30.7,20.0,25.86,NNW,327,3.0,6.0,64,0.00,,,0.00,weatherlink.com 1.10,2013-03-12 05:51:00,